Time;durP1;ratioP1;P1;durP2;ratioP2;P2;SDS_P1;SDS_P2;PMS_P1;PMS_P2;Temp;Humidity;BMP_temperature;BMP_pressure;BME280_temperature;BME280_humidity;BME280_pressure;Samples;Min_cycle;Max_cycle;Signal;HPM_P1;HPM_P2
2023/01/29 00:01:27;;;;;;;13.63;7.97;;;4.00;99.90;;;;;;5014425;28;20390;-87
2023/01/29 00:03:53;;;;;;;18.02;8.65;;;3.40;99.90;;;;;;5032144;28;20049;-87
2023/01/29 00:06:19;;;;;;;16.88;8.25;;;4.10;99.90;;;;;;4997502;28;20095;-85
2023/01/29 00:08:45;;;;;;;16.15;9.02;;;3.40;99.90;;;;;;5040074;28;20053;-86
2023/01/29 00:11:11;;;;;;;17.73;8.32;;;3.10;99.90;;;;;;5033977;28;20474;-87
2023/01/29 00:13:37;;;;;;;17.63;8.43;;;4.50;99.90;;;;;;5017289;28;20048;-85
2023/01/29 00:16:03;;;;;;;18.85;9.02;;;3.50;99.90;;;;;;5051471;28;20049;-87
2023/01/29 00:18:30;;;;;;;22.95;8.73;;;3.50;99.90;;;;;;5033235;28;20056;-86
2023/01/29 00:20:55;;;;;;;14.70;8.63;;;4.40;99.90;;;;;;5051349;28;20201;-86
2023/01/29 00:23:22;;;;;;;15.35;8.50;;;3.50;99.90;;;;;;5051922;28;20119;-87
2023/01/29 00:25:48;;;;;;;14.10;8.38;;;4.40;99.90;;;;;;5033699;28;20080;-86
2023/01/29 00:28:14;;;;;;;18.33;8.85;;;4.40;99.90;;;;;;5051280;28;20075;-86
2023/01/29 00:30:40;;;;;;;14.63;8.30;;;4.30;99.90;;;;;;5033725;28;20045;-86
2023/01/29 00:33:06;;;;;;;17.85;8.93;;;3.40;99.90;;;;;;5016880;28;20063;-86
2023/01/29 00:35:32;;;;;;;14.10;8.43;;;4.00;99.90;;;;;;5033397;28;20063;-87
2023/01/29 00:37:58;;;;;;;15.98;8.88;;;3.90;99.90;;;;;;5032832;28;20048;-86
2023/01/29 00:40:24;;;;;;;18.58;9.10;;;4.40;99.90;;;;;;5051349;28;20049;-87
2023/01/29 00:45:35;;;;;;;15.98;8.88;;;3.40;99.90;;;;;;5051055;28;20479;-86
2023/01/29 00:48:02;;;;;;;18.52;9.40;;;3.50;99.90;;;;;;5033074;28;20139;-86
2023/01/29 00:50:29;;;;;;;13.90;9.02;;;3.50;99.90;;;;;;5032896;28;20554;-87
2023/01/29 00:52:55;;;;;;;13.65;9.35;;;4.40;99.90;;;;;;5032812;28;20044;-88
2023/01/29 00:55:21;;;;;;;17.85;10.07;;;4.10;99.90;;;;;;5032947;28;20048;-87
2023/01/29 00:57:46;;;;;;;17.17;9.32;;;4.20;99.90;;;;;;5050864;28;20381;-85
2023/01/29 01:00:15;;;;;;;19.58;9.93;;;4.00;99.90;;;;;;5032447;28;20373;-86
2023/01/29 01:05:26;;;;;;;16.85;9.40;;;4.10;99.90;;;;;;5050611;28;20057;-86
2023/01/29 01:07:54;;;;;;;17.50;9.77;;;3.50;99.90;;;;;;5032644;28;20132;-85
2023/01/29 01:10:26;;;;;;;20.02;10.85;;;3.70;99.90;;;;;;5050302;28;20048;-86
2023/01/29 01:12:57;;;;;;;18.15;10.82;;;3.50;99.90;;;;;;5050548;28;20051;-87
2023/01/29 01:15:25;;;;;;;24.17;11.45;;;4.40;99.90;;;;;;5050690;28;20051;-87
2023/01/29 01:17:53;;;;;;;18.15;10.43;;;4.10;99.90;;;;;;5050720;28;20057;-87
2023/01/29 01:20:19;;;;;;;17.20;11.00;;;3.60;99.90;;;;;;5050080;28;20053;-86
2023/01/29 01:22:44;;;;;;;17.45;11.27;;;4.20;99.90;;;;;;5032466;28;20060;-87
2023/01/29 01:25:10;;;;;;;17.55;10.90;;;4.00;99.90;;;;;;5032986;28;20049;-87
2023/01/29 01:27:40;;;;;;;17.35;10.68;;;4.20;99.90;;;;;;5032378;28;20511;-87
2023/01/29 01:30:16;;;;;;;20.40;10.82;;;4.40;99.90;;;;;;5016996;28;20048;-87
2023/01/29 01:32:53;;;;;;;18.05;10.95;;;3.60;99.90;;;;;;5032007;28;20067;-86
2023/01/29 01:35:30;;;;;;;21.13;10.43;;;3.90;99.90;;;;;;5049901;28;20510;-87
2023/01/29 01:37:56;;;;;;;21.10;10.52;;;4.60;99.90;;;;;;5031367;28;20041;-86
2023/01/29 01:40:49;;;;;;;20.50;11.25;;;3.60;99.90;;;;;;5015742;28;20051;-87
2023/01/29 01:43:19;;;;;;;19.20;10.10;;;3.60;99.90;;;;;;5049699;28;20049;-87
2023/01/29 01:45:45;;;;;;;17.08;10.63;;;4.10;99.90;;;;;;5049727;28;20045;-87
2023/01/29 01:48:16;;;;;;;17.88;10.93;;;4.30;99.90;;;;;;5015952;28;20048;-87
2023/01/29 01:50:49;;;;;;;18.70;11.18;;;4.50;99.90;;;;;;5032169;28;20052;-88
2023/01/29 01:53:25;;;;;;;19.80;11.32;;;3.60;99.90;;;;;;5031546;28;20060;-87
2023/01/29 01:55:55;;;;;;;20.52;11.13;;;4.60;99.90;;;;;;5016069;28;20144;-87
2023/01/29 01:58:25;;;;;;;22.27;11.13;;;3.90;99.90;;;;;;5015640;28;20088;-86
2023/01/29 02:00:51;;;;;;;23.00;11.18;;;4.60;99.90;;;;;;5049669;28;20049;-86
2023/01/29 02:11:45;;;;;;;17.80;11.55;;;4.70;99.90;;;;;;5030664;28;20798;-85
2023/01/29 02:14:11;;;;;;;20.40;12.13;;;4.50;99.90;;;;;;5032387;28;20059;-86
2023/01/29 02:16:37;;;;;;;21.65;11.60;;;3.80;99.90;;;;;;5032260;28;20045;-85
2023/01/29 02:19:09;;;;;;;19.85;11.77;;;3.80;99.90;;;;;;5052715;28;20079;-86
2023/01/29 02:22:03;;;;;;;22.38;11.95;;;4.50;99.90;;;;;;5019253;28;20428;-86
2023/01/29 02:24:39;;;;;;;17.88;11.82;;;3.80;99.90;;;;;;5035311;28;20114;-87
2023/01/29 02:27:23;;;;;;;20.75;12.45;;;3.70;99.90;;;;;;5018389;28;20119;-87
2023/01/29 02:30:08;;;;;;;18.70;12.23;;;3.70;99.90;;;;;;5034409;28;20049;-87
2023/01/29 02:32:53;;;;;;;24.67;13.20;;;4.50;99.90;;;;;;5024069;28;20045;-86
2023/01/29 02:35:33;;;;;;;21.50;13.40;;;4.20;99.90;;;;;;5048709;28;20076;-87
2023/01/29 02:38:05;;;;;;;21.00;13.93;;;4.20;99.90;;;;;;5023561;28;20401;-85
2023/01/29 02:40:37;;;;;;;25.25;14.23;;;3.70;99.90;;;;;;5030742;28;20073;-86
2023/01/29 02:43:37;;;;;;;21.15;13.85;;;4.20;99.90;;;;;;5046201;28;20083;-87
2023/01/29 02:46:10;;;;;;;21.48;14.32;;;3.70;99.90;;;;;;4965781;28;20569;-86
2023/01/29 02:49:01;;;;;;;23.08;14.02;;;3.70;99.90;;;;;;4945145;28;20119;-86
2023/01/29 02:51:42;;;;;;;23.50;14.18;;;4.00;99.90;;;;;;4860717;29;20072;-85
2023/01/29 02:54:22;;;;;;;22.90;13.85;;;3.70;99.90;;;;;;4887367;29;20057;-86
2023/01/29 02:56:56;;;;;;;24.00;13.75;;;4.30;99.90;;;;;;4892914;29;20408;-85
2023/01/29 02:59:38;;;;;;;23.20;13.75;;;4.00;99.90;;;;;;4893888;29;20119;-85
2023/01/29 03:02:09;;;;;;;24.10;14.02;;;3.80;99.90;;;;;;4871074;29;20049;-86
2023/01/29 03:04:41;;;;;;;22.38;13.85;;;3.60;99.90;;;;;;4890910;29;20639;-86
2023/01/29 03:07:39;;;;;;;24.40;14.40;;;4.10;99.90;;;;;;4876118;29;20052;-87
2023/01/29 03:10:00;;;;;;;26.05;14.75;;;4.30;99.90;;;;;;4877940;29;20056;-88
2023/01/29 03:12:32;;;;;;;20.95;13.52;;;4.30;99.90;;;;;;4857308;29;20061;-87
2023/01/29 03:15:12;;;;;;;21.27;13.98;;;3.70;99.90;;;;;;4869290;29;20063;-87
2023/01/29 03:17:47;;;;;;;20.08;13.02;;;4.20;99.90;;;;;;4877593;29;20139;-86
2023/01/29 03:20:17;;;;;;;;;;;3.70;99.90;;;;;;4901950;29;20053;-86
2023/01/29 03:22:49;;;;;;;24.98;13.27;;;3.70;99.90;;;;;;4928823;28;19922;-88
2023/01/29 03:34:00;;;;;;;18.70;12.43;;;4.40;99.90;;;;;;5020227;28;20049;-87
2023/01/29 03:36:38;;;;;;;27.25;15.05;;;3.70;99.90;;;;;;5023528;28;20041;-87
2023/01/29 03:39:10;;;;;;;23.40;14.32;;;4.10;99.90;;;;;;5029308;28;20054;-88
2023/01/29 03:41:46;;;;;;;22.80;13.57;;;4.10;99.90;;;;;;5013931;28;20405;-86
2023/01/29 03:44:21;;;;;;;20.02;13.73;;;3.70;99.90;;;;;;5023123;28;20587;-89
2023/01/29 03:46:56;;;;;;;20.40;13.75;;;4.00;99.90;;;;;;4998132;28;20517;-88
2023/01/29 03:49:27;;;;;;;24.50;13.80;;;4.60;99.90;;;;;;5023841;28;20045;-89
2023/01/29 03:52:28;;;;;;;22.60;14.00;;;3.70;99.90;;;;;;5023177;28;20463;-87
2023/01/29 03:55:15;;;;;;;23.75;14.13;;;3.70;99.90;;;;;;5017131;28;20054;-88
2023/01/29 03:57:44;;;;;;;21.40;13.88;;;3.70;99.90;;;;;;5002157;28;20060;-88
2023/01/29 04:00:17;;;;;;;25.13;16.08;;;3.70;99.90;;;;;;4994652;28;20501;-88
2023/01/29 04:02:56;;;;;;;24.88;14.80;;;4.60;99.90;;;;;;5008021;28;20184;-87
2023/01/29 04:05:28;;;;;;;23.77;15.75;;;3.70;99.90;;;;;;5014441;28;20056;-88
2023/01/29 04:08:01;;;;;;;23.92;14.10;;;3.70;99.90;;;;;;5014260;28;20132;-88
2023/01/29 04:10:28;;;;;;;22.15;14.80;;;4.00;99.90;;;;;;4994618;28;20132;-87
2023/01/29 04:13:03;;;;;;;21.50;14.57;;;4.50;99.90;;;;;;5019892;28;20568;-90
2023/01/29 04:15:45;;;;;;;26.58;14.02;;;3.70;99.90;;;;;;5012540;28;20533;-91
2023/01/29 04:18:11;;;;;;;25.70;15.40;;;4.30;99.90;;;;;;5005585;28;20116;-92
2023/01/29 04:20:37;;;;;;;27.45;15.88;;;3.80;99.90;;;;;;5004717;28;20061;-90
2023/01/29 04:23:06;;;;;;;26.67;16.38;;;4.00;99.90;;;;;;5017017;28;20115;-90
2023/01/29 04:25:42;;;;;;;24.70;15.55;;;4.60;99.90;;;;;;4995403;28;20513;-89
2023/01/29 04:28:20;;;;;;;27.85;16.42;;;4.60;99.90;;;;;;5005513;28;20050;-91
2023/01/29 04:30:55;;;;;;;24.70;15.70;;;3.80;99.90;;;;;;4985711;28;20046;-86
2023/01/29 04:33:27;;;;;;;24.10;16.30;;;3.80;99.90;;;;;;5020394;28;20046;-88
2023/01/29 04:36:26;;;;;;;25.08;16.60;;;3.80;99.90;;;;;;4984115;28;20046;-87
2023/01/29 04:39:42;;;;;;;25.17;16.08;;;3.80;99.90;;;;;;4999540;28;20092;-88
2023/01/29 04:42:16;;;;;;;22.60;15.27;;;3.80;99.90;;;;;;4949728;28;20078;-87
2023/01/29 04:44:48;;;;;;;25.67;15.57;;;3.80;99.90;;;;;;4941923;29;20054;-88
2023/01/29 04:47:38;;;;;;;23.80;16.38;;;3.90;99.90;;;;;;4942526;29;20055;-88
2023/01/29 04:50:22;;;;;;;28.35;16.48;;;3.90;99.90;;;;;;4928495;29;20048;-89
2023/01/29 04:53:03;;;;;;;25.40;15.77;;;3.90;99.90;;;;;;4933170;29;20057;-87
2023/01/29 04:55:48;;;;;;;27.88;16.70;;;3.90;99.90;;;;;;4945367;29;20065;-88
2023/01/29 04:58:31;;;;;;;24.88;16.83;;;3.80;99.90;;;;;;4941664;29;20047;-89
2023/01/29 05:00:57;;;;;;;27.23;16.23;;;3.80;99.90;;;;;;4933209;29;20130;-90
2023/01/29 05:03:25;;;;;;;27.77;16.85;;;4.60;99.90;;;;;;4932500;29;20050;-88
2023/01/29 05:05:54;;;;;;;25.05;16.70;;;4.10;99.90;;;;;;4932915;29;20052;-89
2023/01/29 05:08:23;;;;;;;34.58;18.73;;;4.80;99.90;;;;;;4924776;29;20043;-88
2023/01/29 05:10:51;;;;;;;26.17;16.52;;;4.60;99.90;;;;;;4941226;29;20093;-89
2023/01/29 05:13:21;;;;;;;26.50;16.67;;;4.50;99.90;;;;;;4988552;28;20125;-89
2023/01/29 05:15:55;;;;;;;29.75;16.20;;;3.80;99.90;;;;;;5001738;28;20157;-88
2023/01/29 05:18:21;;;;;;;27.33;16.98;;;4.60;99.90;;;;;;4987674;28;20073;-89
2023/01/29 05:20:47;;;;;;;24.80;15.80;;;4.40;99.90;;;;;;5001553;28;20146;-89
2023/01/29 05:23:18;;;;;;;33.33;17.50;;;4.60;99.90;;;;;;5024040;28;20077;-90
2023/01/29 05:25:45;;;;;;;27.70;15.82;;;4.70;99.90;;;;;;5028952;28;20100;-89
2023/01/29 05:28:17;;;;;;;24.58;16.25;;;4.70;99.90;;;;;;5024039;28;20059;-89
2023/01/29 05:30:49;;;;;;;31.00;17.15;;;4.60;99.90;;;;;;5007015;28;20041;-88
2023/01/29 05:33:32;;;;;;;27.23;16.40;;;4.20;99.90;;;;;;5031629;28;20103;-89
2023/01/29 05:35:59;;;;;;;23.90;15.40;;;3.70;99.90;;;;;;5023033;28;20053;-90
2023/01/29 05:38:25;;;;;;;25.60;15.73;;;4.60;99.90;;;;;;5027191;28;20056;-88
2023/01/29 05:40:57;;;;;;;27.35;17.00;;;3.70;99.90;;;;;;5006441;28;20072;-89
2023/01/29 05:43:24;;;;;;;23.17;15.52;;;4.60;99.90;;;;;;5009176;28;20045;-89
2023/01/29 05:45:59;;;;;;;25.98;17.17;;;4.70;99.90;;;;;;5013485;28;20110;-88
2023/01/29 05:48:27;;;;;;;27.02;17.10;;;3.90;99.90;;;;;;5026544;28;20408;-89
2023/01/29 05:50:53;;;;;;;24.92;15.57;;;4.40;99.90;;;;;;5026193;28;20496;-89
2023/01/29 05:53:19;;;;;;;26.50;16.30;;;4.70;99.90;;;;;;5003179;28;20045;-89
2023/01/29 05:55:46;;;;;;;24.40;16.73;;;4.20;99.90;;;;;;5026680;28;20504;-88
2023/01/29 05:58:18;;;;;;;26.13;16.90;;;4.00;99.90;;;;;;5014091;28;20045;-89
2023/01/29 06:00:44;;;;;;;28.77;17.23;;;4.30;99.90;;;;;;5016403;28;20085;-89
2023/01/29 06:03:09;;;;;;;28.98;17.55;;;4.40;99.90;;;;;;5028339;28;20124;-87
2023/01/29 06:05:39;;;;;;;29.92;19.55;;;4.00;99.90;;;;;;5029940;28;20126;-88
2023/01/29 06:08:06;;;;;;;31.40;20.15;;;4.10;99.90;;;;;;5030061;28;20045;-89
2023/01/29 06:10:32;;;;;;;33.25;21.40;;;3.70;99.90;;;;;;5044907;28;20127;-90
2023/01/29 06:12:57;;;;;;;35.05;21.33;;;3.60;99.90;;;;;;5031526;28;20132;-88
2023/01/29 06:15:25;;;;;;;43.70;23.27;;;4.40;99.90;;;;;;5003401;28;20468;-88
2023/01/29 06:17:53;;;;;;;39.58;24.20;;;3.60;99.90;;;;;;5026373;28;20091;-89
2023/01/29 06:20:19;;;;;;;37.72;22.98;;;4.50;99.90;;;;;;5015363;28;20560;-87
2023/01/29 06:22:44;;;;;;;36.80;22.58;;;3.70;99.90;;;;;;5006003;28;20156;-89
2023/01/29 06:25:13;;;;;;;41.75;22.95;;;4.60;99.90;;;;;;5005845;28;20057;-89
2023/01/29 06:27:41;;;;;;;39.40;23.05;;;4.10;99.90;;;;;;5005503;28;20709;-86
2023/01/29 06:30:08;;;;;;;32.85;19.77;;;4.80;99.90;;;;;;5020709;28;20045;-89
2023/01/29 06:32:33;;;;;;;40.40;23.02;;;3.70;99.90;;;;;;4994485;28;20059;-89
2023/01/29 06:34:59;;;;;;;40.85;23.83;;;4.50;99.90;;;;;;5003602;28;20049;-88
2023/01/29 06:37:25;;;;;;;37.33;22.23;;;4.70;99.90;;;;;;5020343;28;20481;-92
2023/01/29 06:39:50;;;;;;;40.58;21.90;;;4.10;99.90;;;;;;5021235;28;20052;-89
2023/01/29 06:42:16;;;;;;;39.65;24.13;;;4.70;99.90;;;;;;5013001;28;20436;-90
2023/01/29 06:44:41;;;;;;;40.40;23.67;;;4.80;99.90;;;;;;5020975;28;20053;-86
2023/01/29 06:47:07;;;;;;;38.17;22.05;;;4.40;99.90;;;;;;5003212;28;20370;-89
2023/01/29 06:49:33;;;;;;;42.10;25.08;;;3.60;99.90;;;;;;5009089;28;20504;-89
2023/01/29 06:51:58;;;;;;;34.95;20.98;;;3.90;99.90;;;;;;5003342;28;20115;-89
2023/01/29 06:54:24;;;;;;;41.17;24.08;;;4.50;99.90;;;;;;5009262;28;20069;-90
2023/01/29 06:56:51;;;;;;;35.25;22.05;;;3.70;99.90;;;;;;5021080;28;20059;-89
2023/01/29 06:59:16;;;;;;;36.83;23.17;;;4.20;99.90;;;;;;5019535;28;20088;-88
2023/01/29 07:01:43;;;;;;;39.72;21.98;;;4.30;99.90;;;;;;4999640;28;20073;-87
2023/01/29 07:04:15;;;;;;;39.03;23.45;;;4.30;99.90;;;;;;5010096;28;20056;-88
2023/01/29 07:06:40;;;;;;;35.80;23.95;;;3.70;99.90;;;;;;4996423;28;20058;-89
2023/01/29 07:09:06;;;;;;;36.78;23.33;;;4.60;99.90;;;;;;5021852;28;20408;-86
2023/01/29 07:11:33;;;;;;;40.20;24.77;;;3.70;99.90;;;;;;5015221;28;20499;-90
2023/01/29 07:13:59;;;;;;;40.15;25.45;;;4.60;99.90;;;;;;4999080;28;20046;-87
2023/01/29 07:16:25;;;;;;;40.60;23.95;;;4.30;99.90;;;;;;5015729;28;20045;-89
2023/01/29 07:18:51;;;;;;;35.90;24.20;;;3.70;99.90;;;;;;5015899;28;20400;-89
2023/01/29 07:21:16;;;;;;;39.88;26.15;;;4.30;99.90;;;;;;5018047;28;20057;-92
2023/01/29 07:23:45;;;;;;;41.08;24.58;;;3.80;99.90;;;;;;4999405;28;20056;-90
2023/01/29 07:26:11;;;;;;;41.80;27.75;;;4.40;99.90;;;;;;5015171;28;20052;-87
2023/01/29 07:28:37;;;;;;;41.60;24.98;;;4.60;99.90;;;;;;5013455;28;20045;-89
2023/01/29 07:31:04;;;;;;;47.65;28.65;;;4.70;99.90;;;;;;5001651;28;20045;-88
2023/01/29 07:33:30;;;;;;;40.70;24.58;;;3.60;99.90;;;;;;5032872;28;20091;-86
2023/01/29 07:35:55;;;;;;;49.30;27.35;;;4.50;99.90;;;;;;5032861;28;20432;-91
2023/01/29 07:38:21;;;;;;;45.80;29.50;;;4.60;99.90;;;;;;5014597;28;20041;-87
2023/01/29 07:40:47;;;;;;;44.75;28.77;;;4.70;99.90;;;;;;5015330;28;20057;-88
2023/01/29 07:43:15;;;;;;;45.70;27.52;;;4.70;99.90;;;;;;5032468;28;20053;-89
2023/01/29 07:45:40;;;;;;;41.08;28.60;;;4.30;99.90;;;;;;5032355;28;20103;-88
2023/01/29 07:48:10;;;;;;;47.45;26.35;;;3.70;99.90;;;;;;5032508;28;20053;-89
2023/01/29 07:50:35;;;;;;;47.60;27.25;;;4.30;99.90;;;;;;5032299;28;20091;-88
2023/01/29 07:53:04;;;;;;;41.42;29.08;;;4.50;99.90;;;;;;4998487;28;20045;-87
2023/01/29 07:55:32;;;;;;;39.50;26.50;;;4.60;99.90;;;;;;5014916;28;20373;-91
2023/01/29 07:58:00;;;;;;;40.90;25.30;;;4.70;99.90;;;;;;5014567;28;20053;-87
2023/01/29 08:00:25;;;;;;;42.67;27.90;;;4.10;99.90;;;;;;5013117;28;20056;-87
2023/01/29 08:03:00;;;;;;;42.60;23.35;;;4.10;99.90;;;;;;4997806;28;20045;-91
2023/01/29 08:05:26;;;;;;;39.10;27.30;;;4.40;99.90;;;;;;5014654;28;20045;-88
2023/01/29 08:07:53;;;;;;;45.72;26.42;;;4.00;99.90;;;;;;4998281;28;20507;-90
2023/01/29 08:10:18;;;;;;;43.45;27.50;;;4.80;99.90;;;;;;5014224;28;20488;-89
2023/01/29 08:12:44;;;;;;;40.55;27.13;;;3.20;99.90;;;;;;4997920;28;20160;-90
2023/01/29 08:15:12;;;;;;;44.42;29.17;;;3.50;99.90;;;;;;4997486;28;20042;-90
2023/01/29 08:17:42;;;;;;;50.03;28.33;;;3.60;99.90;;;;;;5015013;28;20060;-90
2023/01/29 08:20:29;;;;;;;42.60;25.48;;;3.80;99.90;;;;;;4998337;28;20154;-89
2023/01/29 08:23:06;;;;;;;43.47;27.58;;;3.70;99.90;;;;;;4999142;28;20099;-91
2023/01/29 08:25:33;;;;;;;46.40;28.67;;;4.80;99.90;;;;;;4997731;28;20791;-91
2023/01/29 08:27:59;;;;;;;46.20;26.73;;;4.20;99.90;;;;;;4998612;28;20077;-88
2023/01/29 08:30:27;;;;;;;41.75;26.90;;;4.10;99.90;;;;;;5014396;28;20045;-89
2023/01/29 08:32:56;;;;;;;39.50;23.70;;;4.60;99.90;;;;;;5014710;28;20053;-91
2023/01/29 08:35:34;;;;;;;43.20;26.85;;;4.20;99.90;;;;;;5032649;28;20120;-90
2023/01/29 08:38:03;;;;;;;48.17;28.27;;;3.70;99.90;;;;;;5032447;28;20072;-90
2023/01/29 08:40:45;;;;;;;44.35;27.08;;;4.50;99.90;;;;;;5014665;28;20053;-91
2023/01/29 08:43:12;;;;;;;42.90;25.80;;;3.70;99.90;;;;;;4998418;28;20057;-89
2023/01/29 08:45:41;;;;;;;47.92;29.15;;;4.60;99.90;;;;;;5014508;28;20046;-88
2023/01/29 08:48:08;;;;;;;49.05;28.73;;;4.70;99.90;;;;;;4998205;28;20132;-92
2023/01/29 08:50:34;;;;;;;53.17;28.52;;;4.10;99.90;;;;;;4997980;28;20699;-89
2023/01/29 08:53:02;;;;;;;47.50;28.67;;;4.50;99.90;;;;;;4997638;28;20106;-89
2023/01/29 08:55:28;;;;;;;42.97;26.85;;;4.80;99.90;;;;;;5014238;28;20049;-90
2023/01/29 08:58:04;;;;;;;43.70;25.83;;;4.20;99.90;;;;;;4998318;28;20052;-92
2023/01/29 09:00:30;;;;;;;47.03;28.67;;;4.20;99.90;;;;;;5014452;28;20116;-90
2023/01/29 09:02:58;;;;;;;45.13;26.15;;;4.60;99.90;;;;;;4997906;28;20034;-88
2023/01/29 09:05:24;;;;;;;47.38;28.98;;;4.60;99.90;;;;;;5013074;28;20053;-89
2023/01/29 09:08:05;;;;;;;45.95;28.23;;;4.60;99.90;;;;;;4989345;28;20492;-89
2023/01/29 09:10:31;;;;;;;43.72;24.13;;;5.00;99.90;;;;;;5005813;28;20049;-88
2023/01/29 09:12:57;;;;;;;45.65;27.60;;;4.00;99.90;;;;;;5005781;28;20432;-87
2023/01/29 09:15:23;;;;;;;53.65;27.52;;;4.60;99.90;;;;;;5031316;28;20052;-87
2023/01/29 09:17:48;;;;;;;47.90;29.45;;;4.30;99.90;;;;;;4997471;28;20049;-85
2023/01/29 09:20:14;;;;;;;48.58;28.92;;;4.00;99.90;;;;;;5038592;28;20060;-89
2023/01/29 09:22:40;;;;;;;43.35;25.20;;;4.00;99.90;;;;;;5017227;28;20041;-87
2023/01/29 09:25:09;;;;;;;49.97;27.77;;;4.50;99.90;;;;;;5050860;28;20049;-88
2023/01/29 09:27:36;;;;;;;45.70;28.25;;;5.20;99.90;;;;;;5016603;28;20526;-89
2023/01/29 09:30:05;;;;;;;49.38;27.95;;;4.40;99.90;;;;;;5051021;28;20392;-90
2023/01/29 09:32:34;;;;;;;46.42;25.85;;;4.10;99.90;;;;;;5032946;28;20041;-88
2023/01/29 09:35:00;;;;;;;45.42;28.90;;;4.60;99.90;;;;;;5020796;28;20057;-89
2023/01/29 09:37:26;;;;;;;46.20;27.38;;;4.10;99.90;;;;;;5013359;28;20041;-91
2023/01/29 09:39:51;;;;;;;47.60;27.23;;;5.00;99.90;;;;;;5005268;28;20132;-90
2023/01/29 09:42:33;;;;;;;46.70;28.52;;;5.30;99.90;;;;;;5025163;28;20051;-86
2023/01/29 09:45:08;;;;;;;45.58;27.52;;;4.20;99.90;;;;;;5020062;28;20049;-90
2023/01/29 09:47:35;;;;;;;44.47;26.55;;;4.20;99.90;;;;;;5036620;28;20049;-89
2023/01/29 09:50:07;;;;;;;46.95;28.60;;;4.90;99.90;;;;;;5050841;28;20404;-88
2023/01/29 09:52:57;;;;;;;42.88;25.25;;;4.20;99.90;;;;;;5016392;28;20045;-89
2023/01/29 09:55:34;;;;;;;44.33;26.83;;;4.20;99.90;;;;;;5032468;28;20500;-86
2023/01/29 09:58:24;;;;;;;44.33;24.20;;;4.90;99.90;;;;;;5030605;28;20085;-88
2023/01/29 10:00:56;;;;;;;43.15;25.33;;;4.20;99.90;;;;;;5042699;28;20052;-86
2023/01/29 10:03:37;;;;;;;47.53;26.58;;;5.10;99.90;;;;;;5004328;28;20076;-91
2023/01/29 10:06:44;;;;;;;47.33;27.58;;;5.00;99.90;;;;;;5007023;28;20464;-88
2023/01/29 10:09:09;;;;;;;48.20;27.85;;;4.20;99.90;;;;;;5050405;28;20535;-87
2023/01/29 10:12:06;;;;;;;45.38;26.45;;;4.20;99.90;;;;;;5032922;28;20127;-89
2023/01/29 10:15:01;;;;;;;49.17;27.30;;;4.20;99.90;;;;;;5016153;28;20037;-88
2023/01/29 10:17:48;;;;;;;47.17;26.75;;;4.10;99.90;;;;;;5032306;28;20053;-91
2023/01/29 10:20:57;;;;;;;47.72;27.70;;;4.10;99.90;;;;;;5032932;28;20184;-91
2023/01/29 10:23:46;;;;;;;50.15;27.67;;;4.10;99.90;;;;;;5017828;28;20052;-90
2023/01/29 10:29:21;;;;;;;49.05;28.42;;;4.80;99.90;;;;;;4973076;28;20060;-90
2023/01/29 10:32:04;;;;;;;49.30;27.35;;;5.20;99.90;;;;;;4971538;28;20054;-90
2023/01/29 10:34:44;;;;;;;49.63;29.35;;;5.00;99.90;;;;;;4972202;28;20486;-90
2023/01/29 10:37:33;;;;;;;54.55;30.55;;;3.90;99.90;;;;;;4954446;28;20564;-88
2023/01/29 10:40:23;;;;;;;54.47;28.05;;;4.10;99.90;;;;;;4973698;28;20062;-93
2023/01/29 10:43:12;;;;;;;53.78;29.40;;;5.20;99.90;;;;;;4976328;28;20400;-89
2023/01/29 10:46:01;;;;;;;52.08;27.90;;;4.00;99.90;;;;;;4960688;28;20653;-90
2023/01/29 10:48:58;;;;;;;53.55;29.58;;;5.20;99.90;;;;;;4953190;28;20501;-89
2023/01/29 10:51:54;;;;;;;52.10;27.10;;;4.10;99.90;;;;;;4976501;28;20581;-87
2023/01/29 10:54:42;;;;;;;51.83;28.92;;;4.50;99.90;;;;;;4976572;28;20062;-88
2023/01/29 11:00:35;;;;;;;54.30;28.23;;;4.20;99.90;;;;;;4918248;29;20398;-90
2023/01/29 11:03:18;;;;;;;51.65;29.70;;;4.20;99.90;;;;;;4918628;29;20199;-89
2023/01/29 11:06:16;;;;;;;55.75;29.20;;;4.20;99.90;;;;;;4902950;29;20592;-90
2023/01/29 11:09:03;;;;;;;55.58;27.52;;;5.10;99.90;;;;;;4918616;29;20089;-90
2023/01/29 11:11:56;;;;;;;53.05;29.73;;;5.40;99.90;;;;;;4935067;29;20069;-91
2023/01/29 11:14:47;;;;;;;51.22;26.45;;;4.30;99.90;;;;;;4918642;29;20123;-86
2023/01/29 11:17:29;;;;;;;48.60;26.27;;;4.30;99.90;;;;;;4888763;29;20064;-90
2023/01/29 11:19:56;;;;;;;56.83;30.45;;;3.60;99.90;;;;;;4895252;28;20068;-86
2023/01/29 11:22:24;;;;;;;53.53;28.75;;;5.40;99.90;;;;;;4880153;29;20084;-87
2023/01/29 11:25:17;;;;;;;49.28;27.33;;;5.30;99.90;;;;;;4896465;29;20064;-88
2023/01/29 11:27:59;;;;;;;50.75;26.20;;;4.30;99.90;;;;;;4840566;29;20099;-89
2023/01/29 11:30:38;;;;;;;54.78;30.13;;;4.30;99.90;;;;;;4825525;29;20081;-92
2023/01/29 11:33:28;;;;;;;57.90;30.92;;;5.40;99.90;;;;;;4825843;29;20514;-93
2023/01/29 11:35:56;;;;;;;48.58;26.70;;;5.50;99.90;;;;;;4840795;29;20076;-89
2023/01/29 11:38:30;;;;;;;50.80;27.83;;;5.10;99.90;;;;;;4857336;29;20057;-92
2023/01/29 11:41:27;;;;;;;;;;;;;;;;;;;;;
2023/01/29 11:43:58;;;;;;;55.50;27.20;;;4.60;99.90;;;;;;4840437;29;20126;-92
2023/01/29 11:46:24;;;;;;;52.58;27.20;;;4.00;99.90;;;;;;4824559;29;20510;-90
2023/01/29 11:48:54;;;;;;;60.60;29.60;;;4.40;99.90;;;;;;4828908;29;20064;-90
2023/01/29 11:51:30;;;;;;;46.03;22.45;;;4.40;99.90;;;;;;4844313;29;20593;-87
2023/01/29 11:54:03;;;;;;;55.78;25.70;;;5.20;99.90;;;;;;4880896;29;20067;-89
2023/01/29 11:56:37;;;;;;;51.75;25.63;;;4.40;99.90;;;;;;4933467;29;20496;-87
2023/01/29 11:59:36;;;;;;;52.20;25.98;;;4.10;99.90;;;;;;4931777;29;20099;-89
2023/01/29 12:02:16;;;;;;;45.65;24.20;;;4.60;99.90;;;;;;4898315;29;20884;-89
2023/01/29 12:04:42;;;;;;;50.92;24.80;;;4.50;99.90;;;;;;4917626;28;20059;-87
2023/01/29 12:07:20;;;;;;;48.72;24.23;;;5.40;99.90;;;;;;4936743;29;20054;-90
2023/01/29 12:09:57;;;;;;;46.88;24.58;;;4.60;99.90;;;;;;4920611;29;20074;-89
2023/01/29 12:12:36;;;;;;;44.15;24.42;;;5.70;99.90;;;;;;4936168;29;20055;-92
2023/01/29 12:15:18;;;;;;;40.95;22.80;;;4.10;99.90;;;;;;4920810;29;20518;-89
2023/01/29 12:18:09;;;;;;;41.33;23.45;;;4.70;99.90;;;;;;4935899;29;20134;-88
2023/01/29 12:20:47;;;;;;;36.72;20.30;;;4.90;99.90;;;;;;4897964;29;20052;-87
2023/01/29 12:23:47;;;;;;;40.20;23.52;;;4.80;99.90;;;;;;4884611;29;20087;-90
2023/01/29 12:26:39;;;;;;;38.55;21.15;;;4.80;99.90;;;;;;4933620;29;20055;-90
2023/01/29 12:29:46;;;;;;;41.10;21.23;;;5.60;99.90;;;;;;4897914;29;20056;-92
2023/01/29 12:32:47;;;;;;;44.75;21.95;;;4.90;99.90;;;;;;4838497;29;20129;-89
2023/01/29 12:35:24;;;;;;;36.35;21.83;;;5.00;99.90;;;;;;4839703;29;20766;-92
2023/01/29 12:38:03;;;;;;;38.35;20.63;;;4.80;99.90;;;;;;4828906;29;20153;-88
2023/01/29 12:40:54;;;;;;;36.35;18.77;;;5.80;99.90;;;;;;4805319;29;20145;-86
2023/01/29 12:43:43;;;;;;;36.35;20.13;;;5.30;99.90;;;;;;4805687;29;20061;-84
2023/01/29 12:46:45;;;;;;;31.50;18.73;;;5.30;99.90;;;;;;4820995;29;20062;-89
2023/01/29 12:49:23;;;;;;;28.02;17.20;;;4.90;99.90;;;;;;4822561;29;20114;-90
2023/01/29 12:52:02;;;;;;;33.25;17.95;;;4.80;99.90;;;;;;4854522;29;20204;-91
2023/01/29 12:55:06;;;;;;;35.08;20.38;;;4.70;99.90;;;;;;4823949;29;20069;-93
2023/01/29 12:57:57;;;;;;;36.85;18.38;;;4.90;99.90;;;;;;4811092;29;20065;-87
2023/01/29 13:00:31;;;;;;;29.83;16.60;;;4.90;99.90;;;;;;4841989;29;20061;-90
2023/01/29 13:03:37;;;;;;;36.25;18.65;;;4.90;99.90;;;;;;4857092;29;20110;-92
2023/01/29 13:06:10;;;;;;;31.30;17.75;;;4.90;99.90;;;;;;4850993;29;20143;-92
2023/01/29 13:09:32;;;;;;;31.63;17.50;;;5.40;99.90;;;;;;4894305;29;20613;-90
2023/01/29 13:12:32;;;;;;;25.98;15.02;;;4.90;99.90;;;;;;4919779;29;20070;-92
2023/01/29 13:15:32;;;;;;;29.75;15.70;;;4.90;99.90;;;;;;4904142;29;20066;-92
2023/01/29 13:18:09;;;;;;;33.28;17.35;;;4.90;99.90;;;;;;4860477;29;20057;-91
2023/01/29 13:21:04;;;;;;;32.72;17.48;;;5.00;99.90;;;;;;4827489;29;20205;-90
2023/01/29 13:23:46;;;;;;;30.98;16.90;;;4.90;99.90;;;;;;4802385;29;20063;-89
2023/01/29 13:26:12;;;;;;;28.42;17.17;;;5.90;99.90;;;;;;4802036;29;20117;-89
2023/01/29 13:28:50;;;;;;;29.42;16.88;;;5.30;99.90;;;;;;4770197;30;20099;-88
2023/01/29 13:31:56;;;;;;;28.58;17.65;;;4.90;99.90;;;;;;4768667;30;20059;-89
2023/01/29 13:34:31;;;;;;;28.08;16.83;;;5.10;99.90;;;;;;4769005;30;20133;-86
2023/01/29 13:37:02;;;;;;;29.35;17.30;;;4.90;99.90;;;;;;4783711;30;20058;-88
2023/01/29 13:39:34;;;;;;;26.70;14.93;;;5.30;99.90;;;;;;4768792;30;20055;-87
2023/01/29 13:42:02;;;;;;;26.83;15.40;;;5.10;99.90;;;;;;4768268;30;20056;-89
2023/01/29 13:45:07;;;;;;;24.42;14.93;;;5.70;99.90;;;;;;4769062;30;20113;-91